createdAt,value
2019-03-15T00:03:00.098Z,73.81
2019-03-15T00:07:05.552Z,73.76
2019-03-15T00:11:10.895Z,73.31
2019-03-15T00:15:16.311Z,72.50
2019-03-15T00:19:21.945Z,73.33
2019-03-15T00:23:27.509Z,72.31
2019-03-15T00:27:33.063Z,72.70
2019-03-15T00:31:38.552Z,72.85
2019-03-15T00:35:43.995Z,72.01
2019-03-15T00:39:49.608Z,71.99
2019-03-15T00:43:54.996Z,72.45
2019-03-15T00:48:00.452Z,72.79
2019-03-15T00:52:05.882Z,71.90
2019-03-15T00:56:11.763Z,72.10
2019-03-15T01:00:17.375Z,72.62
2019-03-15T01:04:22.686Z,72.48
2019-03-15T01:08:28.142Z,72.45
2019-03-15T01:12:33.918Z,72.04
2019-03-15T01:16:39.621Z,72.91
2019-03-15T01:20:45.321Z,72.41
2019-03-15T01:24:50.673Z,72.99
2019-03-15T01:28:55.991Z,72.77
2019-03-15T01:33:01.439Z,72.85
2019-03-15T01:37:07.119Z,72.59
2019-03-15T01:41:12.481Z,72.82
2019-03-15T01:45:18.458Z,71.92
2019-03-15T01:49:24.039Z,72.56
2019-03-15T01:53:29.411Z,72.46
2019-03-15T01:57:35.065Z,72.26
2019-03-15T02:01:40.398Z,71.87
2019-03-15T02:05:45.816Z,73.32
2019-03-15T02:09:51.627Z,73.22
2019-03-15T02:13:57.401Z,73.11
2019-03-15T02:18:02.825Z,72.65
2019-03-15T02:22:08.531Z,73.15
2019-03-15T02:26:14.334Z,73.51
2019-03-15T02:30:19.777Z,73.38
2019-03-15T02:34:25.438Z,72.59
2019-03-15T02:38:30.920Z,72.98
2019-03-15T02:42:36.377Z,72.51
2019-03-15T02:46:41.799Z,72.97
2019-03-15T02:50:47.263Z,72.64
2019-03-15T02:54:53.711Z,72.84
2019-03-15T02:59:00.034Z,72.85
2019-03-15T03:03:05.468Z,73.07
2019-03-15T03:07:11.182Z,72.37
2019-03-15T03:11:16.634Z,72.80
2019-03-15T03:15:21.995Z,73.40
2019-03-15T03:19:28.199Z,73.63
2019-03-15T03:23:33.902Z,73.01
2019-03-15T03:27:39.180Z,73.48
2019-03-15T03:31:45.593Z,73.82
2019-03-15T03:35:51.474Z,73.61
2019-03-15T03:39:56.845Z,73.87
2019-03-15T03:44:02.271Z,73.58
2019-03-15T03:48:08.510Z,74.03
2019-03-15T03:52:13.937Z,73.25
2019-03-15T03:56:19.410Z,73.68
2019-03-15T04:00:24.925Z,74.08
2019-03-15T04:04:30.375Z,74.28
2019-03-15T04:08:35.876Z,74.51
2019-03-15T04:12:41.433Z,73.39
2019-03-15T04:16:46.806Z,73.11
2019-03-15T04:20:52.115Z,73.15
2019-03-15T04:24:57.541Z,72.86
2019-03-15T04:29:02.941Z,71.97
2019-03-15T04:33:08.636Z,71.98
2019-03-15T04:37:13.862Z,72.51
2019-03-15T04:41:19.287Z,71.98
2019-03-15T04:45:24.557Z,72.32
2019-03-15T04:49:30.000Z,72.24
2019-03-15T04:53:35.675Z,72.78
2019-03-15T04:57:41.041Z,72.84
2019-03-15T05:01:46.662Z,74.02
2019-03-15T05:06:11.496Z,74.31
2019-03-15T05:10:16.993Z,75.01
2019-03-15T05:14:22.385Z,75.23
2019-03-15T05:18:27.738Z,75.32
2019-03-15T05:22:33.679Z,76.03
2019-03-15T05:26:39.115Z,76.16
2019-03-15T05:30:44.485Z,76.64
2019-03-15T05:34:49.776Z,77.32
2019-03-15T05:38:55.462Z,77.36
2019-03-15T05:43:00.908Z,78.49
2019-03-15T05:47:06.345Z,79.10
2019-03-15T05:51:11.895Z,79.32
2019-03-15T05:55:17.329Z,79.85
2019-03-15T05:59:22.824Z,80.21
2019-03-15T06:03:28.494Z,80.44
2019-03-15T06:07:33.948Z,80.93
2019-03-15T06:11:39.424Z,81.32
2019-03-15T06:15:48.334Z,81.33
2019-03-15T06:19:54.111Z,82.16
2019-03-15T06:23:59.991Z,82.23
2019-03-15T06:28:05.891Z,82.42
2019-03-15T06:32:12.009Z,82.30
2019-03-15T06:36:17.511Z,82.82
2019-03-15T06:40:23.061Z,83.36
2019-03-15T06:44:29.082Z,84.86
2019-03-15T06:48:34.530Z,85.81
2019-03-15T06:52:40.290Z,86.45
2019-03-15T06:56:46.001Z,86.81
2019-03-15T07:00:54.633Z,87.08
2019-03-15T07:04:58.822Z,87.29
2019-03-15T07:09:07.280Z,87.56
2019-03-15T07:13:12.847Z,88.19
2019-03-15T07:17:18.295Z,88.57
2019-03-15T07:21:24.053Z,88.46
2019-03-15T07:25:29.487Z,88.71
2019-03-15T07:29:34.912Z,89.08
2019-03-15T07:33:40.321Z,89.38
2019-03-15T07:37:46.071Z,89.56
2019-03-15T07:41:51.449Z,89.71
2019-03-15T07:45:57.153Z,89.68
2019-03-15T07:50:02.745Z,89.72
2019-03-15T07:54:08.135Z,89.80
2019-03-15T07:58:13.458Z,90.01
2019-03-15T08:02:18.922Z,90.03
2019-03-15T08:06:34.272Z,90.12
2019-03-15T08:10:31.612Z,90.13
2019-03-15T08:14:37.324Z,90.21
2019-03-15T08:18:42.780Z,90.18
2019-03-15T08:22:48.214Z,90.33
2019-03-15T08:26:53.679Z,90.42
2019-03-15T08:30:59.030Z,90.36
2019-03-15T08:35:04.729Z,90.54
2019-03-15T08:39:10.238Z,90.48
2019-03-15T08:43:16.043Z,90.37
2019-03-15T08:47:21.895Z,90.72
2019-03-15T08:51:27.577Z,90.92
2019-03-15T08:55:33.046Z,91.00
2019-03-15T08:59:38.326Z,91.04
2019-03-15T09:03:43.774Z,91.02
2019-03-15T09:07:49.224Z,91.02
2019-03-15T09:11:55.034Z,91.14
2019-03-15T09:16:00.347Z,91.25
2019-03-15T09:20:06.301Z,91.30
2019-03-15T09:24:11.815Z,91.12
2019-03-15T09:28:17.261Z,91.03
2019-03-15T09:32:22.761Z,91.11
2019-03-15T09:36:28.195Z,90.94
2019-03-15T09:40:33.635Z,90.83
2019-03-15T09:44:39.130Z,90.97
2019-03-15T09:48:44.901Z,91.01
2019-03-15T09:52:50.597Z,91.08
2019-03-15T09:56:55.963Z,91.22
2019-03-15T10:01:01.711Z,91.18
2019-03-15T10:05:11.342Z,91.17
2019-03-15T10:09:14.877Z,91.07
2019-03-15T10:13:20.695Z,90.77
2019-03-15T10:17:25.953Z,90.66
2019-03-15T10:21:32.706Z,90.66
2019-03-15T10:25:46.699Z,90.61
2019-03-15T10:29:45.259Z,90.85
2019-03-15T10:33:51.092Z,90.61
2019-03-15T10:37:56.745Z,90.68
2019-03-15T10:42:02.114Z,90.70
2019-03-15T10:46:07.607Z,90.26
2019-03-15T10:50:13.478Z,90.18
2019-03-15T10:54:18.879Z,89.36
2019-03-15T10:58:24.340Z,88.83
2019-03-15T11:02:29.751Z,88.70
2019-03-15T11:06:35.181Z,87.85
2019-03-15T11:10:40.566Z,87.23
2019-03-15T11:14:46.263Z,87.38
2019-03-15T11:18:51.883Z,87.42
2019-03-15T11:22:57.411Z,88.10
2019-03-15T11:27:03.304Z,88.50
2019-03-15T11:31:08.816Z,88.03
2019-03-15T11:35:14.510Z,87.71
2019-03-15T11:39:20.909Z,86.79
2019-03-15T11:43:26.435Z,87.03
2019-03-15T11:47:44.478Z,87.44
2019-03-15T11:51:42.323Z,86.45
2019-03-15T11:55:46.843Z,85.32
2019-03-15T11:59:52.218Z,85.53
2019-03-15T12:03:58.007Z,84.28
2019-03-15T12:08:03.366Z,83.32
2019-03-15T12:12:08.891Z,82.44
2019-03-15T12:16:14.240Z,82.17
2019-03-15T12:20:19.780Z,82.93
2019-03-15T12:24:25.523Z,82.13
2019-03-15T12:28:30.990Z,82.62
2019-03-15T12:32:36.451Z,81.67
2019-03-15T12:36:41.944Z,81.50
2019-03-15T12:40:47.770Z,80.57
2019-03-15T12:44:53.140Z,80.21
2019-03-15T12:48:58.507Z,80.09
2019-03-15T12:53:03.867Z,79.50
2019-03-15T12:57:09.322Z,78.28
2019-03-15T13:01:14.873Z,78.31
2019-03-15T13:05:20.573Z,77.22
2019-03-15T13:09:25.886Z,77.34
2019-03-15T13:13:31.347Z,76.85
2019-03-15T13:17:36.859Z,76.45
2019-03-15T13:21:42.298Z,75.96
2019-03-15T13:25:47.675Z,76.97
2019-03-15T13:29:53.385Z,76.28
2019-03-15T13:33:58.766Z,76.11
2019-03-15T13:38:04.200Z,76.81
2019-03-15T13:42:09.622Z,76.65
2019-03-15T13:46:17.406Z,76.16
2019-03-15T13:50:23.112Z,76.70
2019-03-15T13:54:28.600Z,76.64
2019-03-15T13:58:34.077Z,76.32
2019-03-15T14:02:39.725Z,76.25
2019-03-15T14:06:45.126Z,75.93
2019-03-15T14:10:50.482Z,76.11
2019-03-15T14:14:55.955Z,76.08
2019-03-15T14:19:01.332Z,75.88
2019-03-15T14:23:07.013Z,76.16
2019-03-15T14:27:12.460Z,75.68
2019-03-15T14:31:17.875Z,75.78
2019-03-15T14:35:23.650Z,75.22
2019-03-15T14:39:29.238Z,74.66
2019-03-15T14:43:34.642Z,75.36
2019-03-15T14:47:40.241Z,75.32
2019-03-15T14:51:45.701Z,74.87
2019-03-15T14:55:51.354Z,75.51
2019-03-15T14:59:56.648Z,76.13
2019-03-15T15:04:02.063Z,77.03
2019-03-15T15:08:07.526Z,76.72
2019-03-15T15:12:12.878Z,76.09
2019-03-15T15:16:18.502Z,75.90
2019-03-15T15:20:23.937Z,76.00
2019-03-15T15:24:29.654Z,75.46
2019-03-15T15:28:35.409Z,75.83
2019-03-15T15:32:40.799Z,77.76
2019-03-15T15:36:46.202Z,78.84
2019-03-15T15:40:51.593Z,80.36
2019-03-15T15:44:57.069Z,82.74
2019-03-15T15:49:02.375Z,84.32
2019-03-15T15:53:10.912Z,85.03
2019-03-15T15:57:15.029Z,85.99
2019-03-15T16:01:20.494Z,85.49
2019-03-15T16:05:26.005Z,86.26
2019-03-15T16:09:31.691Z,86.75
2019-03-15T16:13:36.963Z,88.05
2019-03-15T16:17:45.462Z,87.94
2019-03-15T16:21:50.395Z,88.17
2019-03-15T16:25:56.295Z,88.05
2019-03-15T16:30:01.600Z,88.62
2019-03-15T16:34:07.094Z,88.29
2019-03-15T16:38:12.536Z,87.98
2019-03-15T16:42:17.971Z,87.75
2019-03-15T16:46:23.671Z,88.06
2019-03-15T16:50:29.143Z,88.23
2019-03-15T16:54:34.606Z,88.76
2019-03-15T16:58:45.243Z,88.47
2019-03-15T17:02:47.347Z,88.39
2019-03-15T17:06:53.087Z,88.15
2019-03-15T17:10:58.769Z,87.74
2019-03-15T17:15:04.591Z,87.39
2019-03-15T17:19:10.016Z,88.28
2019-03-15T17:23:15.525Z,88.76
2019-03-15T17:27:20.946Z,88.24
2019-03-15T17:31:26.374Z,89.07
2019-03-15T17:35:31.863Z,89.02
2019-03-15T17:39:37.206Z,88.98
2019-03-15T17:43:42.659Z,88.90
2019-03-15T17:47:48.786Z,89.17
2019-03-15T17:51:54.329Z,89.08
2019-03-15T17:56:00.008Z,89.23
2019-03-15T18:00:36.266Z,89.09
2019-03-15T18:04:41.635Z,89.15
2019-03-15T18:08:47.149Z,90.08
2019-03-15T18:12:52.667Z,90.54
2019-03-15T18:16:58.119Z,90.82
2019-03-15T18:21:04.191Z,88.71
2019-03-15T18:25:09.692Z,86.98
2019-03-15T18:29:25.894Z,85.33
2019-03-15T18:33:22.316Z,85.16
2019-03-15T18:37:27.727Z,84.80
2019-03-15T18:41:33.424Z,85.20
2019-03-15T18:45:38.968Z,85.17
2019-03-15T18:49:44.439Z,84.77
2019-03-15T18:53:49.935Z,84.96
2019-03-15T18:57:55.770Z,84.75
2019-03-15T19:02:01.318Z,84.13
2019-03-15T19:06:06.713Z,84.91
2019-03-15T19:10:12.623Z,83.80
2019-03-15T19:14:18.079Z,83.80
2019-03-15T19:18:23.565Z,84.63
2019-03-15T19:22:28.981Z,83.29
2019-03-15T19:26:34.448Z,83.67
2019-03-15T19:30:39.869Z,83.61
2019-03-15T19:34:45.331Z,83.67
2019-03-15T19:38:50.779Z,82.78
2019-03-15T19:42:56.219Z,82.61
2019-03-15T19:47:01.583Z,83.36
2019-03-15T19:51:07.011Z,83.70
2019-03-15T19:55:13.262Z,83.79
2019-03-15T19:59:19.316Z,83.12
2019-03-15T20:03:24.778Z,83.56
2019-03-15T20:07:30.271Z,83.91
2019-03-15T20:11:35.769Z,83.45
2019-03-15T20:15:41.124Z,83.45
2019-03-15T20:19:46.617Z,82.49
2019-03-15T20:23:51.841Z,82.21
2019-03-15T20:27:57.140Z,81.90
2019-03-15T20:32:02.564Z,82.74
2019-03-15T20:41:48.763Z,82.59
2019-03-15T20:45:54.341Z,81.95
2019-03-15T20:50:00.070Z,82.68
2019-03-15T20:54:05.613Z,82.23
2019-03-15T20:58:11.456Z,81.72
2019-03-15T21:02:17.154Z,81.92
2019-03-15T21:06:22.638Z,82.57
2019-03-15T21:10:28.093Z,82.25
2019-03-15T21:14:33.795Z,82.07
2019-03-15T21:18:39.094Z,82.66
2019-03-15T21:22:44.648Z,82.74
2019-03-15T21:26:50.388Z,82.26
2019-03-15T21:30:56.084Z,82.46
2019-03-15T21:35:01.520Z,81.91
2019-03-15T21:39:09.762Z,81.92
2019-03-15T21:43:15.431Z,81.67
2019-03-15T21:47:20.973Z,81.77
2019-03-15T21:51:26.430Z,82.13
2019-03-15T21:55:31.896Z,82.28
2019-03-15T21:59:39.067Z,83.12
2019-03-15T22:03:44.519Z,82.97
2019-03-15T22:07:50.010Z,82.89
2019-03-15T22:11:55.592Z,83.25
2019-03-15T22:16:00.982Z,82.80
2019-03-15T22:20:07.458Z,82.58
2019-03-15T22:24:12.911Z,82.91
2019-03-15T22:28:18.345Z,82.42
2019-03-15T22:32:24.083Z,82.83
2019-03-15T22:36:29.731Z,82.50
2019-03-15T22:40:35.284Z,82.86
2019-03-15T22:44:40.771Z,83.52
2019-03-15T22:48:46.239Z,83.01
2019-03-15T22:52:51.605Z,81.87
2019-03-15T22:56:56.970Z,82.13
2019-03-15T23:01:02.398Z,82.44
2019-03-15T23:05:07.853Z,82.56
2019-03-15T23:09:13.358Z,82.16
2019-03-15T23:13:18.727Z,82.13
2019-03-15T23:17:24.288Z,83.24
2019-03-15T23:21:29.806Z,83.28
2019-03-15T23:25:35.541Z,83.67
2019-03-15T23:29:41.050Z,84.40
2019-03-15T23:33:47.059Z,85.14
2019-03-15T23:37:52.531Z,84.75
2019-03-15T23:41:58.228Z,85.33
2019-03-15T23:46:03.632Z,85.10
2019-03-15T23:50:09.262Z,85.54
2019-03-15T23:54:14.973Z,86.31
2019-03-15T23:58:20.442Z,86.34
